Time;durP1;ratioP1;P1;durP2;ratioP2;P2;SDS_P1;SDS_P2;PMS_P1;PMS_P2;Temp;Humidity;BMP_temperature;BMP_pressure;BME280_temperature;BME280_humidity;BME280_pressure;Samples;Min_cycle;Max_cycle;Signal;HPM_P1;HPM_P2
2024/02/09 00:00:18;;;;;;;5.45;1.92;;;8.60;99.90;;;;;;2059241;28;20194;-66
2024/02/09 00:01:19;;;;;;;6.75;1.98;;;8.60;99.90;;;;;;2059289;28;20548;-67
2024/02/09 00:02:20;;;;;;;5.43;2.65;;;8.60;99.90;;;;;;2059158;28;20194;-66
2024/02/09 00:03:22;;;;;;;9.55;2.58;;;8.50;99.90;;;;;;2053100;28;20273;-66
2024/02/09 00:04:22;;;;;;;5.28;2.30;;;8.50;99.90;;;;;;2047579;28;20234;-67
2024/02/09 00:05:24;;;;;;;8.37;2.83;;;8.40;99.90;;;;;;2057464;28;20225;-66
2024/02/09 00:06:25;;;;;;;5.22;2.78;;;8.40;99.90;;;;;;2052262;28;20280;-67
2024/02/09 00:07:25;;;;;;;6.97;3.37;;;8.30;99.90;;;;;;2053358;28;20235;-66
2024/02/09 00:08:26;;;;;;;8.40;3.43;;;8.30;99.90;;;;;;2053650;28;20238;-67
2024/02/09 00:09:27;;;;;;;8.43;3.40;;;8.20;99.90;;;;;;2063301;28;20564;-66
2024/02/09 00:10:27;;;;;;;7.30;3.80;;;8.20;99.90;;;;;;2060885;28;20233;-66
2024/02/09 00:11:29;;;;;;;9.23;3.60;;;8.20;99.90;;;;;;2060111;28;20229;-67
2024/02/09 00:12:29;;;;;;;6.85;3.40;;;8.20;99.90;;;;;;2059943;28;20296;-66
2024/02/09 00:13:30;;;;;;;6.43;3.53;;;8.20;99.90;;;;;;2052911;28;20230;-67
2024/02/09 00:14:32;;;;;;;7.03;4.13;;;8.20;99.90;;;;;;2060994;28;20225;-67
2024/02/09 00:15:33;;;;;;;8.05;3.88;;;8.10;99.90;;;;;;2059860;28;20236;-67
2024/02/09 00:16:33;;;;;;;9.23;3.90;;;8.10;99.90;;;;;;2058504;28;20638;-66
2024/02/09 00:17:35;;;;;;;8.57;4.30;;;8.10;99.90;;;;;;2059960;28;20234;-66
2024/02/09 00:18:36;;;;;;;9.77;4.30;;;8.10;99.90;;;;;;2061948;28;20659;-66
2024/02/09 00:19:37;;;;;;;9.37;4.40;;;8.10;99.90;;;;;;2053602;28;20234;-66
2024/02/09 00:20:38;;;;;;;6.72;4.05;;;8.20;99.90;;;;;;2053690;28;20863;-65
2024/02/09 00:21:39;;;;;;;7.13;4.10;;;8.20;99.90;;;;;;2045928;28;20271;-66
2024/02/09 00:22:40;;;;;;;9.32;4.00;;;8.10;99.90;;;;;;2053744;28;20223;-67
2024/02/09 00:23:41;;;;;;;7.47;4.37;;;8.20;99.90;;;;;;2061082;28;20234;-67
2024/02/09 00:24:42;;;;;;;7.90;3.60;;;8.30;99.90;;;;;;2061267;28;20225;-66
2024/02/09 00:25:43;;;;;;;5.22;3.05;;;8.30;99.90;;;;;;2054478;28;20309;-67
2024/02/09 00:26:44;;;;;;;9.37;4.53;;;8.30;99.90;;;;;;2051921;28;20223;-66
2024/02/09 00:27:44;;;;;;;6.93;3.50;;;8.30;99.90;;;;;;2059355;28;20754;-67
2024/02/09 00:28:45;;;;;;;11.73;3.67;;;8.30;99.90;;;;;;2059942;28;20269;-67
2024/02/09 00:29:46;;;;;;;11.30;4.03;;;8.20;99.90;;;;;;2061210;28;20253;-67
2024/02/09 00:30:46;;;;;;;7.10;3.50;;;8.20;99.90;;;;;;2061053;28;20301;-66
2024/02/09 00:31:52;;;;;;;6.93;3.20;;;8.20;99.90;;;;;;2061580;28;20820;-66
2024/02/09 00:32:53;;;;;;;8.00;4.05;;;8.20;99.90;;;;;;2053683;28;20268;-66
2024/02/09 00:33:54;;;;;;;8.20;3.60;;;8.20;99.90;;;;;;2054137;28;20225;-67
2024/02/09 00:34:55;;;;;;;6.90;4.00;;;8.30;99.90;;;;;;2061042;28;20222;-67
2024/02/09 00:35:56;;;;;;;8.10;3.80;;;8.30;99.90;;;;;;2061032;28;20218;-67
2024/02/09 00:36:57;;;;;;;6.95;3.63;;;8.30;99.90;;;;;;2060724;28;20309;-66
2024/02/09 00:38:00;;;;;;;9.53;4.07;;;8.20;99.90;;;;;;2058907;28;20218;-67
2024/02/09 00:39:00;;;;;;;8.10;3.70;;;8.20;99.90;;;;;;2068079;28;20494;-66
2024/02/09 00:40:04;;;;;;;6.90;3.53;;;8.20;99.90;;;;;;2068621;28;20729;-67
2024/02/09 00:41:07;;;;;;;7.63;3.15;;;8.10;99.90;;;;;;2061241;28;20682;-67
2024/02/09 00:42:11;;;;;;;7.32;3.05;;;8.10;99.90;;;;;;2062621;28;20223;-66
2024/02/09 00:43:12;;;;;;;6.10;3.33;;;8.10;99.90;;;;;;2056227;28;20190;-67
2024/02/09 00:44:13;;;;;;;6.47;3.20;;;8.10;99.90;;;;;;2059345;28;20207;-67
2024/02/09 00:45:14;;;;;;;6.80;2.90;;;8.10;99.90;;;;;;2069045;28;20209;-66
2024/02/09 00:46:15;;;;;;;7.07;3.33;;;8.00;99.90;;;;;;2071158;28;20233;-66
2024/02/09 00:47:16;;;;;;;6.60;3.22;;;8.10;99.90;;;;;;2070229;28;20953;-65
2024/02/09 00:48:18;;;;;;;9.80;3.13;;;8.00;99.90;;;;;;2067998;28;20189;-66
2024/02/09 00:49:20;;;;;;;6.35;2.90;;;8.00;99.90;;;;;;2052846;28;20191;-66
2024/02/09 00:50:21;;;;;;;6.20;3.33;;;8.10;99.90;;;;;;2047289;28;20329;-66
2024/02/09 00:51:24;;;;;;;9.00;3.55;;;8.00;99.90;;;;;;2055293;28;20234;-66
2024/02/09 00:52:24;;;;;;;6.93;2.90;;;8.00;99.90;;;;;;2063220;28;20260;-66
2024/02/09 00:53:25;;;;;;;6.60;2.80;;;8.10;99.90;;;;;;2062516;28;20245;-67
2024/02/09 00:54:26;;;;;;;5.13;3.03;;;8.10;99.90;;;;;;2063066;28;20639;-67
2024/02/09 00:55:29;;;;;;;4.65;2.63;;;8.00;99.90;;;;;;2068711;28;20240;-67
2024/02/09 00:56:30;;;;;;;7.60;3.03;;;8.00;99.90;;;;;;2068675;28;20312;-66
2024/02/09 00:57:31;;;;;;;8.52;3.38;;;8.00;99.90;;;;;;2060756;28;20236;-65
2024/02/09 00:58:33;;;;;;;9.57;3.43;;;8.10;99.90;;;;;;2060906;28;20222;-66
2024/02/09 00:59:38;;;;;;;5.22;2.97;;;8.20;99.90;;;;;;2059469;28;20308;-66
2024/02/09 01:00:40;;;;;;;8.43;3.30;;;8.20;99.90;;;;;;2057501;28;20221;-68
2024/02/09 01:01:40;;;;;;;7.63;3.40;;;8.30;99.90;;;;;;2062681;28;20219;-66
2024/02/09 01:02:43;;;;;;;6.83;3.07;;;8.30;99.90;;;;;;2063351;28;20274;-66
2024/02/09 01:03:44;;;;;;;10.32;3.63;;;8.20;99.90;;;;;;2059542;28;20286;-67
2024/02/09 01:04:44;;;;;;;9.50;3.57;;;8.30;99.90;;;;;;2059895;28;20235;-67
2024/02/09 01:05:46;;;;;;;8.00;3.70;;;8.30;99.90;;;;;;2063654;28;20234;-66
2024/02/09 01:06:51;;;;;;;5.03;3.30;;;8.30;99.90;;;;;;2054977;28;20227;-67
2024/02/09 01:07:51;;;;;;;9.48;3.90;;;8.30;99.90;;;;;;2054267;28;20581;-66
2024/02/09 01:08:53;;;;;;;8.60;4.37;;;8.40;99.90;;;;;;2054755;28;20230;-66
2024/02/09 01:09:57;;;;;;;7.90;3.97;;;8.40;99.90;;;;;;2060262;28;20717;-66
2024/02/09 01:10:58;;;;;;;10.07;3.95;;;8.30;99.90;;;;;;2061223;28;20218;-66
2024/02/09 02:45:15;;;;;;;2.00;1.33;;;8.20;99.90;;;;;;2059962;28;20175;-67
2024/02/09 02:46:16;;;;;;;1.50;1.40;;;8.30;99.90;;;;;;2059824;28;20297;-66
2024/02/09 02:47:18;;;;;;;2.80;0.90;;;8.30;99.90;;;;;;2049778;28;20206;-65
2024/02/09 03:04:19;;;;;;;1.23;0.88;;;8.50;99.90;;;;;;2054720;28;20615;-66
2024/02/09 03:05:24;;;;;;;3.40;1.05;;;8.50;99.90;;;;;;2061607;28;20631;-67
2024/02/09 03:06:24;;;;;;;4.55;1.30;;;8.60;99.90;;;;;;2052561;28;20241;-66
2024/02/09 03:07:25;;;;;;;2.97;1.07;;;8.50;99.90;;;;;;2054012;28;20230;-66
2024/02/09 03:08:26;;;;;;;1.53;0.97;;;8.60;99.90;;;;;;2050278;28;20223;-66
2024/02/09 03:09:26;;;;;;;3.57;1.20;;;8.50;99.90;;;;;;2052243;28;20223;-67
2024/02/09 03:10:27;;;;;;;2.37;1.10;;;8.50;99.90;;;;;;2060743;28;20706;-66
2024/02/09 03:11:28;;;;;;;2.17;1.23;;;8.50;99.90;;;;;;2053726;28;20223;-66
2024/02/09 03:12:29;;;;;;;1.10;0.97;;;8.60;99.90;;;;;;2060744;28;20472;-66
2024/02/09 03:13:29;;;;;;;2.37;1.03;;;8.50;99.90;;;;;;2058339;28;20237;-66
2024/02/09 03:14:30;;;;;;;3.13;1.10;;;8.50;99.90;;;;;;2057079;28;20310;-65
2024/02/09 03:15:31;;;;;;;2.30;1.10;;;8.50;99.90;;;;;;2059414;28;20218;-65
2024/02/09 03:16:32;;;;;;;1.37;1.00;;;8.50;99.90;;;;;;2058277;28;20226;-66
2024/02/09 03:17:32;;;;;;;2.30;1.00;;;8.50;99.90;;;;;;2054023;28;20230;-65
2024/02/09 03:18:33;;;;;;;2.20;0.97;;;8.50;99.90;;;;;;2051286;28;20671;-65
2024/02/09 03:19:35;;;;;;;1.60;1.13;;;8.50;99.90;;;;;;2049127;28;20227;-66
2024/02/09 03:20:37;;;;;;;1.52;0.95;;;8.60;99.90;;;;;;2059866;28;20919;-66
2024/02/09 03:21:37;;;;;;;1.90;1.08;;;8.60;99.90;;;;;;2057040;28;20381;-66
2024/02/09 03:22:38;;;;;;;1.90;1.00;;;8.60;99.90;;;;;;2059803;28;20218;-65
2024/02/09 03:23:39;;;;;;;1.90;0.90;;;8.60;99.90;;;;;;2058401;28;20305;-65
2024/02/09 03:24:40;;;;;;;2.60;1.20;;;8.60;99.90;;;;;;2056538;28;20234;-66
2024/02/09 03:25:40;;;;;;;3.67;1.07;;;8.60;99.90;;;;;;2059138;28;20636;-65
2024/02/09 03:26:41;;;;;;;2.37;1.20;;;8.50;99.90;;;;;;2061493;28;20626;-66
2024/02/09 03:27:42;;;;;;;1.33;1.07;;;8.50;99.90;;;;;;2060076;28;20218;-67
2024/02/09 03:28:43;;;;;;;2.23;1.27;;;8.60;99.90;;;;;;2061399;28;20275;-66
2024/02/09 03:29:43;;;;;;;2.67;1.10;;;8.60;99.90;;;;;;2065461;28;20229;-67
2024/02/09 03:30:45;;;;;;;2.33;1.07;;;8.60;99.90;;;;;;2066332;28;20226;-66
2024/02/09 03:31:45;;;;;;;1.10;1.00;;;8.60;99.90;;;;;;2068345;28;20269;-66
2024/02/09 03:32:46;;;;;;;1.17;1.03;;;8.60;99.90;;;;;;2058480;28;20222;-66
2024/02/09 03:33:47;;;;;;;3.13;1.30;;;8.60;99.90;;;;;;2052353;28;20247;-67
2024/02/09 03:34:49;;;;;;;2.97;0.87;;;8.60;99.90;;;;;;2056665;28;20222;-66
2024/02/09 03:35:49;;;;;;;3.03;1.08;;;8.70;99.90;;;;;;2052454;28;20222;-66
2024/02/09 03:36:54;;;;;;;3.17;1.30;;;8.70;99.90;;;;;;2052921;28;20223;-66
2024/02/09 03:37:55;;;;;;;0.88;0.70;;;8.80;99.90;;;;;;2059414;28;20629;-66
2024/02/09 03:38:56;;;;;;;2.03;1.27;;;8.70;99.90;;;;;;2049979;28;20226;-66
2024/02/09 03:39:57;;;;;;;1.77;1.00;;;8.60;99.90;;;;;;2057023;28;20252;-66
2024/02/09 03:40:57;;;;;;;2.88;1.17;;;8.70;99.90;;;;;;2060769;28;20253;-67
2024/02/09 03:41:58;;;;;;;1.60;0.90;;;8.70;99.90;;;;;;2052948;28;20297;-67
2024/02/09 03:42:59;;;;;;;1.70;0.90;;;8.70;99.90;;;;;;2059622;28;20278;-65
2024/02/09 03:44:04;;;;;;;3.00;1.15;;;8.70;99.90;;;;;;2052100;28;20223;-67
2024/02/09 03:45:06;;;;;;;2.17;1.00;;;8.70;99.90;;;;;;2048881;28;20262;-66
2024/02/09 03:46:07;;;;;;;1.10;0.93;;;8.60;99.90;;;;;;2057035;28;20189;-66
2024/02/09 03:47:07;;;;;;;1.00;0.90;;;8.60;99.90;;;;;;2058284;28;20208;-66
2024/02/09 03:48:08;;;;;;;4.83;2.80;;;8.50;99.90;;;;;;2060204;28;20273;-67
2024/02/09 03:49:11;;;;;;;2.00;1.03;;;8.50;99.90;;;;;;2057401;28;20330;-66
2024/02/09 03:50:13;;;;;;;1.33;1.20;;;8.50;99.90;;;;;;2059060;28;20209;-67
2024/02/09 03:51:14;;;;;;;2.08;1.00;;;8.50;99.90;;;;;;2065151;28;20622;-67
2024/02/09 03:52:18;;;;;;;3.40;1.20;;;8.50;99.90;;;;;;2066085;28;20190;-67
2024/02/09 03:53:19;;;;;;;1.00;0.90;;;8.40;99.90;;;;;;2059184;28;20186;-66
2024/02/09 03:54:19;;;;;;;1.60;1.40;;;8.50;99.90;;;;;;2059045;28;20240;-66
2024/02/09 03:55:20;;;;;;;1.80;1.10;;;8.50;99.90;;;;;;2058061;28;20470;-67
2024/02/09 03:56:21;;;;;;;2.17;0.90;;;8.50;99.90;;;;;;2069792;28;20275;-66
2024/02/09 03:57:24;;;;;;;1.37;1.10;;;8.50;99.90;;;;;;2061022;28;20234;-67
2024/02/09 03:58:25;;;;;;;0.80;0.70;;;8.40;99.90;;;;;;2044768;28;20223;-66
2024/02/09 03:59:27;;;;;;;2.10;0.63;;;8.40;99.90;;;;;;2041413;28;20243;-66
2024/02/09 04:00:28;;;;;;;4.18;1.00;;;8.30;99.90;;;;;;2053081;28;20366;-66
2024/02/09 04:01:28;;;;;;;1.23;1.00;;;8.30;99.90;;;;;;2051965;28;20226;-67
2024/02/09 04:02:29;;;;;;;2.60;0.77;;;8.30;99.90;;;;;;2056904;28;20245;-66
2024/02/09 04:03:30;;;;;;;1.77;0.90;;;8.20;99.90;;;;;;2050157;28;20227;-66
2024/02/09 04:04:31;;;;;;;1.27;1.00;;;8.20;99.90;;;;;;2051580;28;20244;-67
2024/02/09 04:05:31;;;;;;;0.87;0.70;;;8.20;99.90;;;;;;2061299;28;20260;-66
2024/02/09 04:06:32;;;;;;;1.03;0.80;;;8.20;99.90;;;;;;2050355;28;20273;-67
2024/02/09 04:07:33;;;;;;;1.55;0.90;;;8.20;99.90;;;;;;2054509;28;20231;-66
2024/02/09 04:08:34;;;;;;;1.90;1.10;;;8.20;99.90;;;;;;2059187;28;20229;-66
2024/02/09 04:09:43;;;;;;;1.33;0.80;;;8.20;99.90;;;;;;2060746;28;20234;-66
2024/02/09 04:10:44;;;;;;;2.17;0.80;;;8.30;99.90;;;;;;2061179;28;20646;-66
2024/02/09 04:11:44;;;;;;;0.70;0.60;;;8.30;99.90;;;;;;2061184;28;20222;-66
2024/02/09 04:12:45;;;;;;;1.90;0.80;;;8.20;99.90;;;;;;2062131;28;20257;-66
2024/02/09 04:13:46;;;;;;;3.33;0.90;;;8.30;99.90;;;;;;2057791;28;20230;-66
2024/02/09 04:14:47;;;;;;;1.80;0.90;;;8.30;99.90;;;;;;2058684;28;20228;-67
2024/02/09 04:15:47;;;;;;;1.37;0.80;;;8.30;99.90;;;;;;2059780;28;20767;-67
2024/02/09 04:16:51;;;;;;;1.27;0.80;;;8.30;99.90;;;;;;2054318;28;20277;-67
2024/02/09 04:17:52;;;;;;;1.58;0.80;;;8.30;99.90;;;;;;2050574;28;20708;-67
2024/02/09 04:18:52;;;;;;;1.23;0.83;;;8.20;99.90;;;;;;2058238;28;20245;-65
2024/02/09 04:19:53;;;;;;;0.70;0.70;;;8.20;99.90;;;;;;2060944;28;20332;-66
2024/02/09 04:20:55;;;;;;;3.93;0.80;;;8.10;99.90;;;;;;2058666;28;20256;-65
2024/02/09 04:21:55;;;;;;;3.50;0.90;;;8.20;99.90;;;;;;2057673;28;20218;-65
2024/02/09 04:22:56;;;;;;;1.63;0.90;;;8.10;99.90;;;;;;2050115;28;20282;-66
2024/02/09 04:23:57;;;;;;;1.13;0.97;;;8.20;99.90;;;;;;2055323;28;20301;-66
2024/02/09 04:24:59;;;;;;;1.00;0.80;;;8.10;99.90;;;;;;2067109;28;20230;-66
2024/02/09 04:26:00;;;;;;;1.50;0.90;;;8.20;99.90;;;;;;2061528;28;20228;-66
2024/02/09 04:27:02;;;;;;;3.53;1.10;;;8.10;99.90;;;;;;2060276;28;20214;-65
2024/02/09 04:28:04;;;;;;;1.83;1.00;;;8.10;99.90;;;;;;2060334;28;20182;-66
2024/02/09 04:29:05;;;;;;;1.27;0.90;;;8.10;99.90;;;;;;2063055;28;20186;-66
2024/02/09 04:30:06;;;;;;;0.82;0.70;;;8.10;99.90;;;;;;2063468;28;20182;-66
2024/02/09 04:31:07;;;;;;;1.67;0.90;;;8.10;99.90;;;;;;2061516;28;20194;-66
2024/02/09 04:32:07;;;;;;;1.13;0.87;;;8.10;99.90;;;;;;2058524;28;20562;-65
2024/02/09 04:33:09;;;;;;;3.63;1.00;;;8.10;99.90;;;;;;2060685;28;20689;-67
2024/02/09 04:34:13;;;;;;;1.90;0.80;;;8.00;99.90;;;;;;2061902;28;20615;-65
2024/02/09 04:35:15;;;;;;;1.95;0.73;;;8.00;99.90;;;;;;2059518;28;20191;-66
2024/02/09 04:36:17;;;;;;;0.82;0.70;;;8.00;99.90;;;;;;2054141;28;20179;-65
2024/02/09 04:37:21;;;;;;;1.88;1.00;;;8.00;99.90;;;;;;2059467;28;20202;-67
2024/02/09 04:38:22;;;;;;;2.25;0.80;;;7.90;99.90;;;;;;2061487;28;20237;-66
2024/02/09 04:39:23;;;;;;;1.20;1.02;;;8.00;99.90;;;;;;2053900;28;20825;-66
2024/02/09 04:40:25;;;;;;;0.80;0.80;;;8.00;99.90;;;;;;2060940;28;20258;-66
2024/02/09 04:41:25;;;;;;;1.27;0.80;;;8.00;99.90;;;;;;2058998;28;20233;-65
2024/02/09 04:42:26;;;;;;;2.40;0.70;;;8.00;99.90;;;;;;2059313;28;20225;-66
2024/02/09 04:43:27;;;;;;;1.70;0.90;;;8.10;99.90;;;;;;2068927;28;20317;-66
2024/02/09 04:44:27;;;;;;;1.43;1.03;;;8.10;99.90;;;;;;2059380;28;20672;-65
2024/02/09 04:45:28;;;;;;;0.97;0.87;;;8.10;99.90;;;;;;2057485;28;20334;-66
2024/02/09 04:46:29;;;;;;;2.13;1.00;;;8.00;99.90;;;;;;2052186;28;20269;-66
2024/02/09 04:47:30;;;;;;;0.80;0.70;;;8.00;99.90;;;;;;2054370;28;20618;-66
2024/02/09 04:48:31;;;;;;;1.53;0.70;;;8.00;99.90;;;;;;2061331;28;20340;-66
2024/02/09 04:49:31;;;;;;;1.80;0.70;;;7.90;99.90;;;;;;2060698;28;20326;-66
2024/02/09 04:50:32;;;;;;;0.97;0.70;;;8.00;99.90;;;;;;2059759;28;20230;-66
2024/02/09 04:51:33;;;;;;;1.43;0.80;;;7.90;99.90;;;;;;2060431;28;20237;-66
2024/02/09 04:52:35;;;;;;;1.73;0.90;;;8.00;99.90;;;;;;2060387;28;20720;-65
2024/02/09 04:53:36;;;;;;;0.88;0.80;;;8.00;99.90;;;;;;2053175;28;20249;-65
2024/02/09 04:54:37;;;;;;;1.25;0.88;;;8.00;99.90;;;;;;2061570;28;20309;-66
2024/02/09 04:55:39;;;;;;;1.23;0.90;;;8.00;99.90;;;;;;2059646;28;20231;-65
2024/02/09 04:56:40;;;;;;;1.35;0.73;;;8.10;99.90;;;;;;2051015;28;20266;-66
2024/02/09 04:57:44;;;;;;;2.10;0.77;;;8.10;99.90;;;;;;2060294;28;20222;-67
2024/02/09 04:58:45;;;;;;;1.17;0.80;;;8.10;99.90;;;;;;2061088;28;20615;-66
2024/02/09 04:59:45;;;;;;;0.90;0.70;;;8.10;99.90;;;;;;2059829;28;20225;-66
2024/02/09 05:00:46;;;;;;;0.83;0.60;;;8.10;99.90;;;;;;2058979;28;20607;-65
2024/02/09 05:01:48;;;;;;;0.77;0.70;;;8.00;99.90;;;;;;2060435;28;20233;-66
2024/02/09 05:02:48;;;;;;;1.15;0.70;;;8.00;99.90;;;;;;2060441;28;20659;-66
2024/02/09 05:03:49;;;;;;;0.70;0.70;;;8.10;99.90;;;;;;2060983;28;20285;-66
2024/02/09 05:04:49;;;;;;;0.93;0.80;;;8.10;99.90;;;;;;2061378;28;20748;-66
2024/02/09 05:05:50;;;;;;;4.57;0.93;;;8.10;99.90;;;;;;2061682;28;20221;-66
2024/02/09 05:06:51;;;;;;;1.33;0.63;;;8.10;99.90;;;;;;2061087;28;20217;-66
2024/02/09 05:07:51;;;;;;;0.70;0.60;;;8.10;99.90;;;;;;2061945;28;20269;-66
2024/02/09 05:08:54;;;;;;;0.60;0.60;;;8.00;99.90;;;;;;2060121;28;20217;-65
2024/02/09 05:09:54;;;;;;;0.60;0.60;;;8.00;99.90;;;;;;2058253;28;20596;-67
2024/02/09 05:10:55;;;;;;;1.13;0.67;;;8.00;99.90;;;;;;2060458;28;20221;-66
2024/02/09 05:12:00;;;;;;;1.57;0.90;;;8.00;99.90;;;;;;2061686;28;20226;-66
2024/02/09 05:13:02;;;;;;;0.60;0.60;;;8.00;99.90;;;;;;2052150;28;20227;-66
2024/02/09 05:14:05;;;;;;;1.85;0.80;;;8.00;99.90;;;;;;2057668;28;20214;-65
2024/02/09 05:15:06;;;;;;;0.93;0.68;;;8.10;99.90;;;;;;2052068;28;20368;-66
2024/02/09 05:16:08;;;;;;;4.38;0.70;;;8.00;99.90;;;;;;2061129;28;20651;-65
2024/02/09 05:17:10;;;;;;;1.40;0.80;;;8.00;99.90;;;;;;2061162;28;20213;-66
2024/02/09 05:18:14;;;;;;;0.85;0.70;;;8.00;99.90;;;;;;2063085;28;20194;-65
2024/02/09 05:19:14;;;;;;;2.40;0.70;;;8.00;99.90;;;;;;2062503;28;20190;-65
2024/02/09 05:20:15;;;;;;;1.97;0.80;;;8.00;99.90;;;;;;2061806;28;20728;-66
2024/02/09 05:21:16;;;;;;;2.23;0.97;;;8.00;99.90;;;;;;2063306;28;20217;-66
2024/02/09 05:22:17;;;;;;;0.88;0.70;;;8.00;99.90;;;;;;2060903;28;20269;-66
2024/02/09 05:23:18;;;;;;;1.50;0.83;;;8.10;99.90;;;;;;2062097;28;20796;-67
2024/02/09 05:24:18;;;;;;;1.33;1.13;;;8.00;99.90;;;;;;2061495;28;20194;-66
2024/02/09 05:25:20;;;;;;;3.30;1.10;;;8.10;99.90;;;;;;2060979;28;20189;-66
2024/02/09 05:26:21;;;;;;;0.82;0.73;;;8.10;99.90;;;;;;2061129;28;21869;-66
2024/02/09 05:27:22;;;;;;;1.40;0.90;;;8.10;99.90;;;;;;2060468;28;20234;-66
2024/02/09 05:28:23;;;;;;;1.07;0.80;;;8.20;99.90;;;;;;2049652;28;20305;-66
2024/02/09 05:29:24;;;;;;;0.88;0.70;;;8.30;99.90;;;;;;2050375;28;20313;-66
2024/02/09 05:30:29;;;;;;;1.17;0.70;;;8.30;99.90;;;;;;2059563;28;20233;-66
2024/02/09 05:31:30;;;;;;;1.52;0.82;;;8.30;99.90;;;;;;2061724;28;20249;-65
2024/02/09 05:32:32;;;;;;;3.77;0.97;;;8.20;99.90;;;;;;2060027;28;20237;-65
2024/02/09 05:33:36;;;;;;;1.10;0.98;;;8.20;99.90;;;;;;2058443;28;20529;-65
2024/02/09 05:34:36;;;;;;;1.52;0.80;;;8.20;99.90;;;;;;2054206;28;20230;-65
2024/02/09 05:35:40;;;;;;;0.60;0.60;;;8.20;99.90;;;;;;2061120;28;20222;-66
2024/02/09 05:36:41;;;;;;;1.52;0.90;;;8.20;99.90;;;;;;2053916;28;20246;-66
2024/02/09 05:37:41;;;;;;;1.30;0.80;;;8.30;99.90;;;;;;2053053;28;20250;-66
2024/02/09 05:38:42;;;;;;;1.60;0.80;;;8.30;99.90;;;;;;2058569;28;20321;-66
2024/02/09 05:39:45;;;;;;;2.73;1.00;;;8.30;99.90;;;;;;2059397;28;20600;-66
2024/02/09 05:40:46;;;;;;;2.88;1.02;;;8.30;99.90;;;;;;2057299;28;20223;-66
2024/02/09 05:41:48;;;;;;;2.17;0.88;;;8.30;99.90;;;;;;2056103;28;20225;-66
2024/02/09 05:42:48;;;;;;;4.22;1.30;;;8.20;99.90;;;;;;2058774;28;20798;-66
2024/02/09 05:43:54;;;;;;;0.80;0.70;;;8.10;99.90;;;;;;2060799;28;20261;-66
2024/02/09 05:44:55;;;;;;;2.58;1.00;;;8.10;99.90;;;;;;2056426;28;20226;-66
2024/02/09 05:45:56;;;;;;;0.70;0.70;;;8.10;99.90;;;;;;2060574;28;20229;-66
2024/02/09 05:46:56;;;;;;;1.43;0.70;;;8.20;99.90;;;;;;2059867;28;20222;-67
2024/02/09 05:47:57;;;;;;;1.53;0.70;;;8.20;99.90;;;;;;2062484;28;20214;-66
2024/02/09 05:48:58;;;;;;;1.00;0.80;;;8.10;99.90;;;;;;2061652;28;20708;-65
2024/02/09 05:49:58;;;;;;;1.57;0.90;;;8.10;99.90;;;;;;2061380;28;20222;-65
2024/02/09 05:50:59;;;;;;;1.43;1.00;;;8.10;99.90;;;;;;2060013;28;20717;-66
2024/02/09 05:52:00;;;;;;;0.80;0.80;;;8.10;99.90;;;;;;2060104;28;20241;-66
2024/02/09 05:53:01;;;;;;;0.90;0.80;;;8.10;99.90;;;;;;2056136;28;20232;-65
2024/02/09 05:54:01;;;;;;;1.63;1.10;;;8.10;99.90;;;;;;2058717;28;20654;-66
2024/02/09 05:55:02;;;;;;;3.43;1.10;;;8.10;99.90;;;;;;2058447;28;20218;-66
2024/02/09 05:56:03;;;;;;;1.90;0.80;;;8.20;99.90;;;;;;2059511;28;20190;-65
2024/02/09 05:57:06;;;;;;;1.48;1.00;;;8.20;99.90;;;;;;2060871;28;20217;-67
2024/02/09 05:58:07;;;;;;;1.23;0.70;;;8.30;99.90;;;;;;2060848;28;20189;-66
2024/02/09 05:59:07;;;;;;;2.23;0.80;;;8.30;99.90;;;;;;2053946;28;20190;-67
2024/02/09 06:00:14;;;;;;;0.97;0.80;;;8.30;99.90;;;;;;2050216;28;20183;-67
2024/02/09 06:01:15;;;;;;;1.48;1.00;;;8.40;99.90;;;;;;2057888;28;20272;-67
2024/02/09 06:02:17;;;;;;;2.07;0.97;;;8.50;99.90;;;;;;2054134;28;20258;-67
2024/02/09 06:03:18;;;;;;;1.15;0.60;;;8.50;99.90;;;;;;2059682;28;20189;-67
2024/02/09 06:04:21;;;;;;;1.00;0.90;;;8.50;99.90;;;;;;2059394;28;20190;-65
2024/02/09 06:05:23;;;;;;;1.33;0.80;;;8.50;99.90;;;;;;2058532;28;20226;-66
2024/02/09 06:06:23;;;;;;;1.25;0.93;;;8.50;99.90;;;;;;2059399;28;20222;-66
2024/02/09 06:07:27;;;;;;;1.10;0.90;;;8.50;99.90;;;;;;2058783;28;20229;-66
2024/02/09 06:08:28;;;;;;;0.93;0.75;;;8.50;99.90;;;;;;2059923;28;20257;-67
2024/02/09 06:09:31;;;;;;;1.17;0.80;;;8.50;99.90;;;;;;2060393;28;20285;-67
2024/02/09 06:10:31;;;;;;;1.25;0.77;;;8.50;99.90;;;;;;2058762;28;20575;-67
2024/02/09 06:11:32;;;;;;;2.53;1.23;;;8.60;99.90;;;;;;2056589;28;20237;-66
2024/02/09 06:12:35;;;;;;;1.77;1.10;;;8.60;99.90;;;;;;2058654;28;20234;-67
2024/02/09 06:13:35;;;;;;;3.75;2.80;;;8.50;99.90;;;;;;2056082;28;20651;-66
2024/02/09 06:14:36;;;;;;;5.40;4.17;;;8.60;99.90;;;;;;2062088;28;20256;-66
2024/02/09 06:15:37;;;;;;;8.53;6.30;;;8.60;99.90;;;;;;2059822;28;20229;-67
2024/02/09 06:16:38;;;;;;;5.30;4.30;;;8.60;99.90;;;;;;2058371;28;20305;-66
2024/02/09 06:17:40;;;;;;;5.17;3.33;;;8.60;99.90;;;;;;2057408;28;20892;-67
2024/02/09 06:18:42;;;;;;;2.40;1.50;;;8.60;99.90;;;;;;2051792;28;20267;-66
2024/02/09 06:19:43;;;;;;;4.32;2.10;;;8.60;99.90;;;;;;2050586;28;20227;-66
2024/02/09 06:20:44;;;;;;;3.27;2.67;;;8.60;99.90;;;;;;2060657;28;20222;-66
2024/02/09 06:21:44;;;;;;;3.20;2.40;;;8.60;99.90;;;;;;2060456;28;20226;-66
2024/02/09 06:22:46;;;;;;;3.67;2.70;;;8.60;99.90;;;;;;2057220;28;20233;-66
2024/02/09 06:23:47;;;;;;;4.88;2.88;;;8.50;99.90;;;;;;2059855;28;20302;-67
2024/02/09 06:24:51;;;;;;;1.93;1.10;;;8.50;99.90;;;;;;2060511;28;20706;-66
2024/02/09 06:25:52;;;;;;;1.93;1.70;;;8.50;99.90;;;;;;2008154;28;1094702;-66
2024/02/09 06:26:52;;;;;;;2.63;1.87;;;8.50;99.90;;;;;;2049860;28;20220;-67
2024/02/09 06:27:57;;;;;;;1.40;1.00;;;8.40;99.90;;;;;;2061202;28;20241;-66
2024/02/09 06:28:58;;;;;;;2.63;1.15;;;8.40;99.90;;;;;;2059417;28;20226;-67
2024/02/09 06:29:58;;;;;;;2.27;1.43;;;8.40;99.90;;;;;;2060123;28;20214;-67
2024/02/09 06:31:00;;;;;;;1.20;0.90;;;8.40;99.90;;;;;;2050645;28;20219;-67
2024/02/09 06:32:00;;;;;;;1.05;0.95;;;8.40;99.90;;;;;;2050877;28;20278;-66
2024/02/09 06:33:02;;;;;;;2.13;1.57;;;8.40;99.90;;;;;;2056467;28;20675;-67
2024/02/09 06:34:03;;;;;;;2.38;1.70;;;8.40;99.90;;;;;;2066512;28;20178;-66
2024/02/09 06:35:04;;;;;;;1.27;1.03;;;8.40;99.90;;;;;;2058855;28;20190;-65
2024/02/09 06:36:07;;;;;;;2.63;1.70;;;8.30;99.90;;;;;;2060796;28;20597;-67
2024/02/09 06:37:07;;;;;;;5.60;2.90;;;8.20;99.90;;;;;;2060728;28;20206;-66
2024/02/09 06:38:08;;;;;;;3.60;2.60;;;8.20;99.90;;;;;;2060256;28;20240;-66
2024/02/09 06:39:09;;;;;;;3.40;1.93;;;8.20;99.90;;;;;;2058947;28;20210;-66
2024/02/09 06:40:13;;;;;;;3.33;2.10;;;8.20;99.90;;;;;;2061659;28;20661;-66
2024/02/09 06:41:14;;;;;;;2.92;2.40;;;8.10;99.90;;;;;;2061190;28;20516;-67
2024/02/09 06:42:15;;;;;;;4.07;1.80;;;8.10;99.90;;;;;;2053693;28;20187;-66
2024/02/09 06:43:16;;;;;;;3.43;1.90;;;8.10;99.90;;;;;;2057514;28;20564;-67
2024/02/09 06:44:18;;;;;;;3.25;1.33;;;8.10;99.90;;;;;;2065263;28;20186;-67
2024/02/09 06:45:21;;;;;;;1.73;1.40;;;8.10;99.90;;;;;;2065860;28;20213;-66
2024/02/09 06:46:22;;;;;;;2.70;1.73;;;8.10;99.90;;;;;;2060313;28;20246;-65
2024/02/09 06:47:23;;;;;;;2.00;1.70;;;8.00;99.90;;;;;;2060337;28;20721;-65
2024/02/09 06:48:25;;;;;;;2.50;1.73;;;8.00;99.90;;;;;;2065316;28;20229;-66
2024/02/09 06:49:28;;;;;;;2.92;1.75;;;8.00;99.90;;;;;;2055619;28;20250;-65
2024/02/09 06:50:30;;;;;;;2.15;1.60;;;7.90;99.90;;;;;;2052412;28;20226;-66
2024/02/09 06:51:30;;;;;;;3.97;2.05;;;7.90;99.90;;;;;;2060145;28;20244;-67
2024/02/09 06:52:31;;;;;;;68.17;51.17;;;7.90;99.90;;;;;;2064337;28;20225;-66
2024/02/09 06:53:32;;;;;;;28.47;19.60;;;7.90;99.90;;;;;;2054799;28;20627;-67
2024/02/09 06:54:32;;;;;;;2.23;1.70;;;7.90;99.90;;;;;;2041533;29;20720;-67
2024/02/09 06:55:36;;;;;;;1.97;1.67;;;7.80;99.90;;;;;;2050925;28;20234;-66
2024/02/09 06:56:36;;;;;;;3.75;2.08;;;7.80;99.90;;;;;;2057152;28;20233;-66
2024/02/09 06:57:44;;;;;;;3.10;1.87;;;7.70;99.90;;;;;;2061381;28;20250;-66
2024/02/09 06:58:45;;;;;;;2.72;1.88;;;7.80;99.90;;;;;;2061883;28;20686;-66
2024/02/09 06:59:46;;;;;;;4.70;2.47;;;7.80;99.90;;;;;;2060446;28;20285;-66
2024/02/09 07:00:48;;;;;;;3.27;1.77;;;7.80;99.90;;;;;;2059616;28;20222;-66
2024/02/09 07:01:49;;;;;;;5.68;2.70;;;7.70;99.90;;;;;;2058495;28;20230;-66
2024/02/09 07:02:50;;;;;;;2.80;2.30;;;7.70;99.90;;;;;;2053629;28;20728;-66
2024/02/09 07:03:53;;;;;;;5.17;2.53;;;7.70;99.90;;;;;;2053020;28;20246;-67
2024/02/09 07:05:00;;;;;;;3.75;2.25;;;7.60;99.90;;;;;;2049762;28;20266;-66
2024/02/09 07:06:04;;;;;;;4.45;2.70;;;7.60;99.90;;;;;;2058123;28;20284;-66
2024/02/09 07:07:08;;;;;;;4.38;2.50;;;7.60;99.90;;;;;;2061184;28;20210;-65
2024/02/09 07:08:08;;;;;;;2.75;2.30;;;7.60;99.90;;;;;;2068224;28;20629;-67
2024/02/09 07:09:13;;;;;;;4.13;2.10;;;7.60;99.90;;;;;;2068862;28;20190;-67
2024/02/09 07:10:16;;;;;;;2.78;1.90;;;7.60;99.90;;;;;;2060638;28;20269;-67
2024/02/09 07:11:17;;;;;;;3.13;2.10;;;7.70;99.90;;;;;;2058552;28;20261;-66
2024/02/09 07:12:17;;;;;;;5.10;3.67;;;7.70;99.90;;;;;;2059847;28;20186;-66
2024/02/09 07:13:18;;;;;;;3.93;1.77;;;7.70;99.90;;;;;;2060058;28;20546;-67